Time;durP1;ratioP1;P1;durP2;ratioP2;P2;SDS_P1;SDS_P2;PMS_P1;PMS_P2;Temp;Humidity;BMP_temperature;BMP_pressure;BME280_temperature;BME280_humidity;BME280_pressure;Samples;Min_cycle;Max_cycle;Signal;HPM_P1;HPM_P2
2021/05/06 00:04:03;;;;;;;3.13;1.13;;;6.80;99.90;;;;;;4976261;28;20034;-66
2021/05/06 00:08:23;;;;;;;1.67;1.10;;;6.70;99.90;;;;;;4976964;28;20112;-66
2021/05/06 00:32:12;;;;;;;1.35;1.20;;;6.60;99.90;;;;;;4976709;28;20039;-66
2021/05/06 00:34:37;;;;;;;2.13;1.27;;;6.60;99.90;;;;;;4974632;28;20070;-66
2021/05/06 00:37:03;;;;;;;1.95;1.45;;;6.60;99.90;;;;;;4974642;28;20027;-66
2021/05/06 00:39:43;;;;;;;2.03;1.15;;;6.60;99.90;;;;;;4975137;28;20110;-65
2021/05/06 00:42:25;;;;;;;1.48;0.93;;;6.70;99.90;;;;;;4957589;28;20027;-65
2021/05/06 01:01:35;;;;;;;4.45;1.40;;;6.70;99.90;;;;;;4975070;28;20038;-66
2021/05/06 01:06:30;;;;;;;2.78;1.10;;;6.60;99.90;;;;;;4975143;28;20053;-67
2021/05/06 01:09:01;;;;;;;1.55;1.45;;;6.70;99.90;;;;;;4974909;28;20034;-68
2021/05/06 01:11:35;;;;;;;1.70;1.40;;;6.70;99.90;;;;;;4975292;28;20031;-68
2021/05/06 01:14:05;;;;;;;2.30;1.38;;;6.80;99.90;;;;;;4957444;28;20062;-66
2021/05/06 01:16:31;;;;;;;1.65;1.27;;;6.90;99.90;;;;;;4974899;28;20031;-68
2021/05/06 01:18:56;;;;;;;1.42;1.08;;;6.90;99.90;;;;;;4974317;28;20173;-67
2021/05/06 01:21:22;;;;;;;6.07;1.88;;;6.90;99.90;;;;;;4957516;28;20037;-66
2021/05/06 01:23:48;;;;;;;1.60;0.98;;;6.80;99.90;;;;;;4957179;28;20457;-66
2021/05/06 01:26:40;;;;;;;3.25;1.50;;;6.90;99.90;;;;;;4973861;28;20035;-66
2021/05/06 01:29:06;;;;;;;3.05;1.55;;;6.90;99.90;;;;;;4972967;28;20041;-65
2021/05/06 01:31:35;;;;;;;2.33;1.02;;;6.80;99.90;;;;;;4974247;28;20101;-64
2021/05/06 01:36:34;;;;;;;2.22;1.05;;;6.90;99.90;;;;;;4974361;28;20033;-65
2021/05/06 01:59:50;;;;;;;2.60;1.42;;;6.90;99.90;;;;;;4977914;28;20029;-66
2021/05/06 02:02:16;;;;;;;1.58;1.13;;;6.90;99.90;;;;;;4977774;28;20495;-66
2021/05/06 02:04:42;;;;;;;3.28;1.52;;;6.80;99.90;;;;;;4981234;28;20027;-67
2021/05/06 02:07:07;;;;;;;3.22;1.10;;;6.80;99.90;;;;;;4962219;28;20465;-67
2021/05/06 02:09:33;;;;;;;4.30;1.30;;;6.90;99.90;;;;;;4977772;28;20110;-66
2021/05/06 02:11:59;;;;;;;2.88;1.50;;;6.90;99.90;;;;;;4959793;28;20063;-78
2021/05/06 02:14:25;;;;;;;2.55;1.40;;;6.90;99.90;;;;;;4960348;28;20496;-65
2021/05/06 02:16:51;;;;;;;5.32;2.40;;;6.90;99.90;;;;;;4960152;28;20110;-66
2021/05/06 02:19:25;;;;;;;1.95;0.98;;;6.90;99.90;;;;;;4959600;28;20054;-66
2021/05/06 02:21:51;;;;;;;3.90;1.20;;;7.00;99.90;;;;;;4959898;28;20166;-65
2021/05/06 02:24:17;;;;;;;5.82;1.27;;;7.10;99.90;;;;;;4959508;28;20532;-66
2021/05/06 02:26:42;;;;;;;2.17;1.13;;;7.10;99.90;;;;;;4977462;28;20031;-66
2021/05/06 02:29:08;;;;;;;1.30;1.00;;;7.10;99.90;;;;;;4976658;28;20031;-66
2021/05/06 02:31:34;;;;;;;3.30;1.50;;;7.10;99.90;;;;;;4977174;28;20039;-65
2021/05/06 02:34:00;;;;;;;2.50;1.58;;;7.10;99.90;;;;;;4977273;28;20349;-67
2021/05/06 02:36:26;;;;;;;2.15;0.95;;;7.00;99.90;;;;;;4977094;28;20492;-66
2021/05/06 02:38:51;;;;;;;3.25;1.02;;;7.00;99.90;;;;;;4977101;28;20066;-67
2021/05/06 02:41:17;;;;;;;2.45;1.40;;;7.10;99.90;;;;;;4976783;28;20062;-67
2021/05/06 02:43:43;;;;;;;1.63;1.10;;;7.10;99.90;;;;;;4960080;28;20031;-66
2021/05/06 02:46:09;;;;;;;2.53;1.42;;;7.10;99.90;;;;;;4958757;28;20050;-66
2021/05/06 02:48:34;;;;;;;1.48;1.25;;;7.20;99.90;;;;;;4960169;28;20117;-67
2021/05/06 02:51:02;;;;;;;1.85;1.50;;;7.20;99.90;;;;;;4977598;28;20023;-69
2021/05/06 02:53:34;;;;;;;3.13;1.13;;;7.10;99.90;;;;;;4977456;28;20475;-68
2021/05/06 02:56:27;;;;;;;3.38;1.20;;;7.10;99.90;;;;;;4977266;28;20046;-66
2021/05/06 03:04:04;;;;;;;3.75;1.58;;;7.10;99.90;;;;;;4976992;28;20029;-74
2021/05/06 03:06:31;;;;;;;2.35;1.50;;;7.10;99.90;;;;;;4977246;28;20114;-67
2021/05/06 03:09:07;;;;;;;2.20;1.67;;;7.10;99.90;;;;;;4960147;28;20031;-67
2021/05/06 03:24:29;;;;;;;3.95;1.35;;;7.00;99.90;;;;;;4976296;28;20035;-67
2021/05/06 03:26:55;;;;;;;2.25;1.15;;;6.90;99.90;;;;;;4958857;28;20054;-66
2021/05/06 03:29:26;;;;;;;1.73;1.30;;;6.80;99.90;;;;;;4958507;28;20034;-67
2021/05/06 03:34:41;;;;;;;4.38;1.50;;;6.80;99.90;;;;;;4977515;28;20026;-67
2021/05/06 03:42:40;;;;;;;3.45;1.60;;;6.70;99.90;;;;;;4975982;28;20404;-67
2021/05/06 04:27:30;;;;;;;1.98;1.50;;;6.60;99.90;;;;;;4974909;28;20042;-66
2021/05/06 04:37:59;;;;;;;3.63;2.10;;;6.50;99.90;;;;;;4975507;28;20121;-68
2021/05/06 05:04:32;;;;;;;4.60;1.90;;;6.60;99.90;;;;;;4974606;28;20046;-67
2021/05/06 05:25:45;;;;;;;6.30;2.50;;;6.80;99.90;;;;;;4974483;28;20039;-68
2021/05/06 05:28:11;;;;;;;5.18;2.40;;;6.70;99.90;;;;;;4956767;28;20389;-75
2021/05/06 05:30:39;;;;;;;4.68;2.35;;;6.80;99.90;;;;;;4973934;28;20484;-69
2021/05/06 05:33:11;;;;;;;5.18;2.13;;;6.80;99.90;;;;;;4956681;28;20057;-67
2021/05/06 05:38:20;;;;;;;3.17;2.67;;;6.70;99.90;;;;;;4974272;28;20030;-67
2021/05/06 05:56:33;;;;;;;6.30;2.33;;;6.80;99.90;;;;;;4973715;28;20110;-69
2021/05/06 05:58:59;;;;;;;6.93;2.65;;;6.80;99.90;;;;;;4956777;28;20449;-69
2021/05/06 06:01:27;;;;;;;5.68;3.28;;;7.00;99.90;;;;;;4973290;28;20042;-67
2021/05/06 06:03:52;;;;;;;5.68;2.58;;;7.10;99.90;;;;;;4956338;28;20097;-68
2021/05/06 06:06:18;;;;;;;10.50;4.40;;;7.00;99.90;;;;;;4955700;28;20394;-68
2021/05/06 06:08:44;;;;;;;8.45;2.83;;;7.00;99.90;;;;;;4973497;28;20023;-67
2021/05/06 06:11:09;;;;;;;4.32;2.58;;;7.10;99.90;;;;;;4956480;28;20034;-67
2021/05/06 06:13:35;;;;;;;6.63;3.13;;;7.10;99.90;;;;;;4956052;28;20122;-67
2021/05/06 06:16:03;;;;;;;6.00;2.90;;;7.30;99.90;;;;;;4956649;28;20058;-71
2021/05/06 06:21:01;;;;;;;5.00;2.47;;;7.30;99.90;;;;;;4972735;28;20085;-69
2021/05/06 06:23:28;;;;;;;3.90;2.42;;;7.30;99.90;;;;;;4955581;28;20126;-68
2021/05/06 06:25:54;;;;;;;10.02;2.58;;;7.20;99.90;;;;;;4973489;28;20035;-67
2021/05/06 06:28:21;;;;;;;7.43;2.63;;;7.20;99.90;;;;;;4973210;28;20030;-68
2021/05/06 06:30:47;;;;;;;5.18;2.30;;;7.30;99.90;;;;;;4971395;28;20035;-71
2021/05/06 06:33:13;;;;;;;4.53;2.75;;;7.20;99.90;;;;;;4972775;28;20183;-68
2021/05/06 06:35:39;;;;;;;6.97;3.00;;;7.20;99.90;;;;;;4958163;28;20039;-67
2021/05/06 06:38:04;;;;;;;4.40;2.20;;;7.30;99.90;;;;;;4959216;28;20041;-68
2021/05/06 06:40:30;;;;;;;6.57;3.40;;;7.30;99.90;;;;;;4958734;28;20499;-68
2021/05/06 06:42:56;;;;;;;9.15;2.90;;;7.40;99.90;;;;;;4958756;28;20050;-67
2021/05/06 06:45:22;;;;;;;5.38;2.38;;;7.60;99.90;;;;;;4957129;28;20539;-68
2021/05/06 06:47:55;;;;;;;7.47;2.78;;;7.70;99.90;;;;;;4973576;28;20400;-69
2021/05/06 06:50:21;;;;;;;7.38;2.67;;;7.80;99.90;;;;;;4957669;28;20170;-67
2021/05/06 06:52:48;;;;;;;5.07;2.10;;;7.80;99.90;;;;;;4975380;28;20050;-68
2021/05/06 06:55:14;;;;;;;4.75;2.60;;;8.00;99.90;;;;;;4957305;28;20030;-68
2021/05/06 06:57:39;;;;;;;4.55;2.17;;;8.00;99.90;;;;;;4956638;28;20338;-68
2021/05/06 07:00:07;;;;;;;5.07;2.85;;;8.00;99.90;;;;;;4972048;28;20515;-68
2021/05/06 07:02:33;;;;;;;11.15;2.67;;;8.10;99.90;;;;;;4972926;28;20113;-65
2021/05/06 07:04:59;;;;;;;11.73;2.53;;;8.00;99.90;;;;;;4973510;28;20469;-68
2021/05/06 07:07:25;;;;;;;11.80;2.83;;;8.30;99.90;;;;;;4956925;28;20031;-67
2021/05/06 07:09:50;;;;;;;2.08;1.88;;;8.30;99.90;;;;;;4979352;28;20049;-70
2021/05/06 07:12:17;;;;;;;4.55;1.83;;;8.30;99.90;;;;;;4963515;28;20043;-70
2021/05/06 07:14:43;;;;;;;6.85;2.35;;;9.00;99.90;;;;;;4961617;28;20039;-75
2021/05/06 07:17:09;;;;;;;7.22;2.60;;;9.40;99.90;;;;;;4978254;28;20496;-71
2021/05/06 07:19:35;;;;;;;7.15;2.13;;;9.30;99.90;;;;;;4975928;28;20041;-71
2021/05/06 07:22:01;;;;;;;5.75;2.33;;;9.30;99.90;;;;;;4957066;28;20050;-67
2021/05/06 07:24:26;;;;;;;3.78;1.90;;;9.00;99.90;;;;;;4959508;28;20042;-69
2021/05/06 07:26:52;;;;;;;5.95;2.38;;;8.70;99.90;;;;;;4977858;28;20034;-68
2021/05/06 07:29:20;;;;;;;3.92;2.20;;;8.70;99.90;;;;;;4977158;28;20030;-74
2021/05/06 07:31:47;;;;;;;7.28;2.05;;;8.60;99.90;;;;;;4958665;28;20114;-67
2021/05/06 07:34:13;;;;;;;6.10;1.88;;;8.50;99.90;;;;;;4965477;28;20077;-69
2021/05/06 07:36:39;;;;;;;7.10;2.58;;;8.50;99.90;;;;;;4975124;28;20030;-66
2021/05/06 07:39:05;;;;;;;5.35;2.13;;;8.70;99.90;;;;;;4985251;28;20412;-68
2021/05/06 07:41:32;;;;;;;6.90;2.58;;;8.80;99.90;;;;;;4968458;28;20034;-66
2021/05/06 07:43:58;;;;;;;4.30;1.88;;;8.70;99.90;;;;;;4983862;28;20066;-69
2021/05/06 07:46:24;;;;;;;9.43;2.47;;;8.70;99.90;;;;;;4964503;28;20058;-69
2021/05/06 07:48:52;;;;;;;7.05;2.90;;;8.80;99.90;;;;;;4967929;28;20026;-72
2021/05/06 07:51:18;;;;;;;12.00;3.00;;;8.80;99.90;;;;;;4977183;28;20023;-76
2021/05/06 07:53:48;;;;;;;8.25;2.80;;;8.80;99.90;;;;;;4982794;28;20035;-71
2021/05/06 07:56:14;;;;;;;4.65;2.45;;;8.90;99.90;;;;;;4979232;28;20034;-67
2021/05/06 07:58:40;;;;;;;6.50;2.85;;;8.80;99.90;;;;;;4981262;28;20232;-71
2021/05/06 08:01:06;;;;;;;4.82;3.10;;;8.80;99.90;;;;;;4966060;28;20185;-72
2021/05/06 08:03:32;;;;;;;5.07;1.95;;;8.90;99.90;;;;;;4965684;28;20031;-68
2021/05/06 08:05:57;;;;;;;4.03;2.40;;;8.70;99.90;;;;;;4967533;28;20057;-66
2021/05/06 08:08:25;;;;;;;6.22;2.33;;;8.70;99.90;;;;;;4974225;28;20030;-67
2021/05/06 08:10:51;;;;;;;5.78;2.47;;;8.70;99.90;;;;;;4963890;28;20082;-70
2021/05/06 08:13:20;;;;;;;5.25;3.15;;;8.60;99.90;;;;;;4953363;28;20125;-76
2021/05/06 08:15:47;;;;;;;5.45;2.72;;;8.60;99.90;;;;;;4966828;28;20054;-71
2021/05/06 08:18:13;;;;;;;8.80;3.10;;;8.70;99.90;;;;;;4954300;28;20456;-68
2021/05/06 08:20:41;;;;;;;7.03;3.22;;;8.60;99.90;;;;;;4970153;28;20041;-70
2021/05/06 08:23:09;;;;;;;4.65;3.25;;;8.60;99.90;;;;;;4964820;28;20026;-65
2021/05/06 08:25:35;;;;;;;5.32;2.67;;;8.70;99.90;;;;;;4948173;28;20111;-66
2021/05/06 08:28:01;;;;;;;4.03;2.17;;;8.80;99.90;;;;;;4946819;28;20376;-66
2021/05/06 08:30:27;;;;;;;8.00;2.28;;;9.00;99.90;;;;;;4967044;28;20118;-70
2021/05/06 08:32:52;;;;;;;5.95;2.05;;;8.90;99.90;;;;;;4951046;28;20418;-69
2021/05/06 08:35:18;;;;;;;4.30;2.03;;;8.90;99.90;;;;;;4955786;28;20031;-73
2021/05/06 08:37:44;;;;;;;2.97;2.08;;;9.00;99.90;;;;;;4954928;28;20031;-63
2021/05/06 08:40:10;;;;;;;6.95;2.47;;;9.10;99.90;;;;;;4957130;28;20034;-67
2021/05/06 08:42:36;;;;;;;4.95;2.30;;;9.00;99.90;;;;;;4959024;28;20039;-67
2021/05/06 08:45:04;;;;;;;3.88;2.83;;;9.00;99.90;;;;;;4974841;28;20077;-70
2021/05/06 08:47:29;;;;;;;4.65;2.15;;;8.90;99.90;;;;;;4975814;28;20516;-70
2021/05/06 08:49:55;;;;;;;3.42;2.88;;;9.00;99.90;;;;;;4973467;28;20030;-67
2021/05/06 08:52:21;;;;;;;5.30;2.38;;;8.90;99.90;;;;;;4971361;28;20058;-69
2021/05/06 08:54:52;;;;;;;5.07;2.83;;;9.00;99.90;;;;;;4971386;28;20043;-68
2021/05/06 08:57:23;;;;;;;6.50;2.95;;;9.10;99.90;;;;;;4970636;28;20034;-74
2021/05/06 08:59:49;;;;;;;5.00;3.00;;;9.10;99.90;;;;;;4972513;28;20098;-66
2021/05/06 09:02:15;;;;;;;5.47;3.03;;;9.00;99.90;;;;;;4955245;28;20385;-69
2021/05/06 09:04:42;;;;;;;6.60;2.75;;;9.00;99.90;;;;;;4971153;28;20031;-68
2021/05/06 09:07:10;;;;;;;4.85;2.30;;;9.20;99.90;;;;;;4954846;28;20117;-67
2021/05/06 09:09:41;;;;;;;4.05;2.38;;;9.30;99.90;;;;;;4972728;28;20038;-70
2021/05/06 09:12:07;;;;;;;5.43;2.67;;;9.30;99.90;;;;;;4975665;28;20034;-67
2021/05/06 09:14:43;;;;;;;6.95;2.35;;;9.10;99.90;;;;;;4975633;28;20153;-67
2021/05/06 09:17:33;;;;;;;5.03;2.25;;;9.00;99.90;;;;;;4975412;28;20038;-68
2021/05/06 09:20:20;;;;;;;6.53;1.98;;;8.90;99.90;;;;;;4975154;28;20146;-66
2021/05/06 09:26:08;;;;;;;6.03;1.98;;;8.80;99.90;;;;;;4975983;28;20093;-72
2021/05/06 09:28:35;;;;;;;6.93;2.47;;;8.90;99.90;;;;;;4974143;28;20031;-68
2021/05/06 09:31:04;;;;;;;8.65;2.88;;;9.00;99.90;;;;;;4975461;28;20034;-70
2021/05/06 09:33:37;;;;;;;6.57;2.33;;;8.90;99.90;;;;;;4974378;28;20027;-70
2021/05/06 09:36:14;;;;;;;3.50;2.17;;;9.00;99.90;;;;;;4974529;28;20030;-67
2021/05/06 09:38:48;;;;;;;8.43;2.85;;;9.20;99.90;;;;;;4973728;28;20057;-67
2021/05/06 09:41:19;;;;;;;5.03;2.50;;;9.40;99.90;;;;;;4972802;28;20441;-68
2021/05/06 09:43:45;;;;;;;10.13;2.33;;;9.30;99.90;;;;;;4963209;28;20046;-67
2021/05/06 09:46:43;;;;;;;4.65;2.53;;;9.30;99.90;;;;;;4954208;28;20078;-70
2021/05/06 09:49:15;;;;;;;6.65;2.00;;;9.40;99.90;;;;;;4957036;28;20033;-66
2021/05/06 09:51:46;;;;;;;2.88;1.63;;;9.60;99.90;;;;;;4973276;28;20035;-68
2021/05/06 09:54:19;;;;;;;3.08;2.20;;;10.00;99.90;;;;;;4971361;28;20070;-69
2021/05/06 09:56:45;;;;;;;5.38;3.47;;;10.30;99.90;;;;;;4953256;28;20069;-67
2021/05/06 09:59:22;;;;;;;5.75;2.70;;;10.50;99.90;;;;;;4953693;28;20114;-69
2021/05/06 10:01:48;;;;;;;3.97;2.25;;;10.90;99.90;;;;;;4953844;28;20085;-69
2021/05/06 10:04:26;;;;;;;8.65;2.90;;;10.30;99.90;;;;;;4955396;28;20039;-70
2021/05/06 10:07:14;;;;;;;4.70;3.00;;;10.10;99.90;;;;;;4956614;28;20464;-68
2021/05/06 10:10:07;;;;;;;6.43;2.65;;;10.20;99.90;;;;;;4959062;28;20058;-73
2021/05/06 10:12:35;;;;;;;7.50;3.05;;;10.50;99.90;;;;;;4955625;28;20046;-72
2021/05/06 10:15:03;;;;;;;4.53;3.08;;;10.70;99.90;;;;;;4956797;28;20034;-68
2021/05/06 10:17:30;;;;;;;3.80;2.30;;;10.80;99.90;;;;;;4955795;28;20130;-67
2021/05/06 10:19:57;;;;;;;6.75;3.13;;;11.40;99.90;;;;;;4955258;28;20038;-71
2021/05/06 10:22:26;;;;;;;3.58;2.47;;;11.50;99.90;;;;;;4972249;28;20114;-69
2021/05/06 10:24:52;;;;;;;5.65;2.15;;;11.20;99.90;;;;;;4955866;28;20077;-68
2021/05/06 10:27:24;;;;;;;3.83;2.40;;;11.20;99.90;;;;;;4972154;28;20027;-73
2021/05/06 10:29:55;;;;;;;5.45;2.25;;;11.40;99.90;;;;;;4955324;28;20127;-70
2021/05/06 10:32:22;;;;;;;7.57;2.20;;;11.50;99.50;;;;;;4954740;28;20058;-68
2021/05/06 10:34:54;;;;;;;3.72;2.03;;;11.30;99.50;;;;;;4954991;28;20065;-68
2021/05/06 10:37:26;;;;;;;3.63;2.25;;;11.40;99.60;;;;;;4955290;28;20034;-67
2021/05/06 10:39:52;;;;;;;6.72;2.75;;;10.90;99.90;;;;;;4974357;28;20038;-70
2021/05/06 10:42:27;;;;;;;7.35;2.63;;;10.70;99.90;;;;;;4955237;28;20509;-68
2021/05/06 10:44:53;;;;;;;4.82;2.35;;;11.30;99.90;;;;;;4955522;28;20110;-69
2021/05/06 10:47:42;;;;;;;4.10;2.70;;;11.60;98.70;;;;;;4954263;28;20134;-70
2021/05/06 10:50:13;;;;;;;5.57;2.63;;;11.70;97.50;;;;;;4972621;28;20027;-69
2021/05/06 10:52:41;;;;;;;5.40;2.45;;;11.40;97.80;;;;;;4955352;28;20038;-68
2021/05/06 10:55:14;;;;;;;14.23;3.78;;;11.60;97.60;;;;;;4954487;28;20031;-73
2021/05/06 10:57:40;;;;;;;9.88;2.85;;;11.60;97.20;;;;;;4971969;28;20038;-68
2021/05/06 11:00:23;;;;;;;5.40;2.67;;;11.60;97.10;;;;;;4972560;28;20050;-67
2021/05/06 11:02:51;;;;;;;5.13;3.13;;;11.60;97.00;;;;;;4971063;28;20041;-70
2021/05/06 11:05:25;;;;;;;5.88;2.20;;;11.50;97.10;;;;;;4973379;28;20093;-81
2021/05/06 11:08:03;;;;;;;3.58;2.35;;;11.30;97.50;;;;;;4971382;28;20078;-68
2021/05/06 11:10:49;;;;;;;5.80;2.55;;;11.40;98.20;;;;;;4971642;28;20100;-69
2021/05/06 11:13:17;;;;;;;6.35;2.28;;;11.20;98.50;;;;;;4971540;28;20061;-68
2021/05/06 11:15:44;;;;;;;3.63;1.80;;;11.60;98.20;;;;;;4954676;28;20027;-69
2021/05/06 11:18:57;;;;;;;4.28;1.83;;;12.00;96.10;;;;;;4972013;28;20075;-68
2021/05/06 11:21:33;;;;;;;4.03;2.30;;;12.30;95.50;;;;;;4951480;28;20042;-67
2021/05/06 11:24:25;;;;;;;6.10;2.05;;;12.10;95.70;;;;;;4954450;28;20026;-67
2021/05/06 11:27:08;;;;;;;3.92;2.15;;;12.10;95.90;;;;;;4972799;28;20027;-67
2021/05/06 11:29:36;;;;;;;5.88;2.38;;;11.70;96.60;;;;;;4955761;28;20039;-66
2021/05/06 11:32:02;;;;;;;8.07;2.15;;;11.40;97.50;;;;;;4974769;28;20034;-69
2021/05/06 11:34:32;;;;;;;9.32;3.20;;;11.50;97.40;;;;;;4953792;28;20061;-68
2021/05/06 11:37:12;;;;;;;7.40;2.20;;;11.40;97.40;;;;;;4954936;28;20030;-67
2021/05/06 11:39:52;;;;;;;4.40;3.10;;;11.50;97.60;;;;;;4970956;28;20031;-72
2021/05/06 11:42:19;;;;;;;4.63;2.00;;;11.70;97.50;;;;;;4953785;28;20077;-72
2021/05/06 11:45:14;;;;;;;3.40;1.83;;;11.60;96.40;;;;;;4954106;28;20030;-68
2021/05/06 11:47:41;;;;;;;4.65;2.28;;;11.40;96.30;;;;;;4970972;28;20082;-67
2021/05/06 11:50:25;;;;;;;3.30;1.88;;;11.50;96.30;;;;;;4971289;28;20027;-70
2021/05/06 11:52:53;;;;;;;3.88;2.03;;;11.50;96.70;;;;;;4953174;28;20085;-66
2021/05/06 11:55:28;;;;;;;2.53;2.03;;;11.40;97.00;;;;;;4970264;28;20485;-67
2021/05/06 11:57:54;;;;;;;4.63;2.25;;;11.10;97.50;;;;;;4955147;28;20118;-70
2021/05/06 12:00:25;;;;;;;3.10;2.30;;;11.00;97.10;;;;;;4974786;28;20023;-67
2021/05/06 12:02:56;;;;;;;2.42;1.88;;;10.80;97.70;;;;;;4938335;28;20038;-66
2021/05/06 12:05:23;;;;;;;5.72;2.65;;;11.00;97.50;;;;;;4952032;28;20027;-68
2021/05/06 12:08:02;;;;;;;8.27;2.50;;;10.90;97.90;;;;;;4972330;28;20070;-67
2021/05/06 12:10:28;;;;;;;2.65;2.10;;;10.70;98.40;;;;;;4954626;28;20455;-66
2021/05/06 12:13:02;;;;;;;3.22;1.88;;;10.70;98.50;;;;;;4953939;28;20121;-67
2021/05/06 12:15:27;;;;;;;4.30;2.10;;;10.60;98.40;;;;;;4953173;28;20031;-66
2021/05/06 12:18:20;;;;;;;4.88;2.55;;;10.60;98.40;;;;;;4954173;28;20027;-67
2021/05/06 12:20:54;;;;;;;5.88;2.65;;;10.60;98.30;;;;;;4971465;28;20121;-65
2021/05/06 12:23:20;;;;;;;5.80;1.95;;;10.70;98.20;;;;;;4952315;28;20062;-67
2021/05/06 12:25:46;;;;;;;4.97;2.03;;;10.60;98.50;;;;;;4952306;28;20441;-68
2021/05/06 12:28:12;;;;;;;4.68;2.20;;;10.70;98.40;;;;;;4970327;28;20039;-68
2021/05/06 12:30:38;;;;;;;8.52;2.92;;;10.70;98.50;;;;;;4970001;28;20062;-66
2021/05/06 12:33:04;;;;;;;4.22;2.20;;;10.60;98.50;;;;;;4971697;28;20121;-66
2021/05/06 12:35:30;;;;;;;3.60;2.13;;;10.70;98.50;;;;;;4953890;28;20426;-65
2021/05/06 12:37:57;;;;;;;3.13;2.25;;;10.60;98.80;;;;;;4955093;28;20026;-65
2021/05/06 12:40:27;;;;;;;3.03;2.50;;;10.50;98.90;;;;;;4953515;28;20042;-66
2021/05/06 12:42:53;;;;;;;6.43;2.28;;;10.50;98.90;;;;;;4971732;28;20066;-66
2021/05/06 12:45:19;;;;;;;4.03;2.13;;;10.70;98.70;;;;;;4952882;28;20084;-66
2021/05/06 12:47:48;;;;;;;3.78;2.33;;;10.70;98.50;;;;;;4973044;28;20145;-66
2021/05/06 12:50:26;;;;;;;3.15;2.00;;;10.70;98.40;;;;;;4973772;28;20027;-66
2021/05/06 12:53:05;;;;;;;7.63;2.38;;;10.80;98.20;;;;;;4972934;28;20338;-68
2021/05/06 12:55:36;;;;;;;10.57;3.17;;;10.70;98.50;;;;;;4957321;28;20117;-68
2021/05/06 12:58:08;;;;;;;3.55;2.40;;;10.70;98.70;;;;;;4974945;28;20417;-66
2021/05/06 13:00:36;;;;;;;6.55;3.00;;;10.80;98.50;;;;;;4954985;28;20027;-69
2021/05/06 13:03:10;;;;;;;6.80;2.47;;;10.90;98.20;;;;;;4953987;28;20050;-68
2021/05/06 13:05:38;;;;;;;3.67;2.15;;;10.90;97.90;;;;;;4952646;28;20094;-67
2021/05/06 13:08:05;;;;;;;4.95;3.40;;;11.00;97.90;;;;;;4954577;28;20117;-71
2021/05/06 13:10:35;;;;;;;3.63;2.63;;;11.00;98.20;;;;;;4953225;28;20512;-66
2021/05/06 13:13:02;;;;;;;5.15;2.65;;;11.00;98.30;;;;;;4956282;28;20102;-65
2021/05/06 13:15:28;;;;;;;5.68;2.35;;;10.90;98.80;;;;;;4955594;28;20144;-66
2021/05/06 13:17:57;;;;;;;3.63;2.70;;;10.90;98.80;;;;;;4955590;28;20034;-67
2021/05/06 13:20:27;;;;;;;5.45;2.15;;;10.90;98.50;;;;;;4956161;28;20031;-66
2021/05/06 13:23:05;;;;;;;4.85;3.05;;;10.80;98.90;;;;;;4955967;28;20034;-65
2021/05/06 13:25:42;;;;;;;3.15;2.80;;;10.70;99.20;;;;;;4955798;28;20031;-65
2021/05/06 13:28:08;;;;;;;4.20;2.85;;;10.70;98.80;;;;;;4973276;28;20039;-66
2021/05/06 13:30:35;;;;;;;6.20;2.90;;;10.60;99.20;;;;;;4938070;29;20032;-65
2021/05/06 13:33:13;;;;;;;3.40;2.60;;;10.80;99.10;;;;;;4935802;29;20093;-69
2021/05/06 13:35:39;;;;;;;4.68;2.95;;;10.80;99.20;;;;;;4934099;29;20032;-68
2021/05/06 13:38:05;;;;;;;4.18;2.58;;;10.90;99.60;;;;;;4935503;29;20031;-67
2021/05/06 13:40:31;;;;;;;5.45;2.65;;;10.90;99.90;;;;;;4953671;29;20035;-66
2021/05/06 13:42:57;;;;;;;5.75;3.08;;;10.90;99.90;;;;;;4940197;29;20484;-66
2021/05/06 13:45:22;;;;;;;8.95;2.92;;;10.70;99.90;;;;;;4957596;29;20450;-68
2021/05/06 13:47:48;;;;;;;3.65;3.20;;;10.60;99.90;;;;;;4960983;29;20122;-66
2021/05/06 13:50:18;;;;;;;7.40;2.85;;;10.50;99.90;;;;;;4961368;29;20051;-68
2021/05/06 13:52:44;;;;;;;6.15;3.10;;;10.50;99.90;;;;;;4959727;29;20082;-69
2021/05/06 13:55:11;;;;;;;7.38;3.03;;;10.60;99.90;;;;;;4943248;29;20031;-68
2021/05/06 13:57:37;;;;;;;4.60;2.70;;;10.60;99.90;;;;;;4959449;29;20481;-66
2021/05/06 14:00:05;;;;;;;4.35;3.25;;;10.50;99.90;;;;;;4941915;29;20125;-69
2021/05/06 14:02:31;;;;;;;5.38;3.42;;;10.40;99.90;;;;;;4939400;29;20434;-66
2021/05/06 14:04:57;;;;;;;4.40;3.17;;;10.50;99.90;;;;;;4939778;29;20442;-66
2021/05/06 14:07:22;;;;;;;6.50;3.78;;;10.60;99.90;;;;;;4924209;29;20038;-65
2021/05/06 14:09:49;;;;;;;4.28;2.83;;;10.50;99.90;;;;;;4939114;29;20031;-64
2021/05/06 14:12:15;;;;;;;7.13;3.03;;;10.50;99.90;;;;;;4959213;29;20138;-66
2021/05/06 14:14:42;;;;;;;5.47;3.47;;;10.40;99.90;;;;;;4940405;29;20061;-65
2021/05/06 14:17:08;;;;;;;4.15;3.65;;;10.40;99.90;;;;;;4925025;29;20084;-66
2021/05/06 14:19:34;;;;;;;5.40;3.53;;;10.40;99.90;;;;;;4957396;29;20023;-66
2021/05/06 14:22:01;;;;;;;8.82;4.68;;;10.30;99.90;;;;;;4924078;29;20165;-66
2021/05/06 14:24:27;;;;;;;6.78;4.20;;;10.40;99.90;;;;;;4938942;29;20023;-66
2021/05/06 14:26:54;;;;;;;19.30;5.78;;;10.40;99.90;;;;;;4957994;29;20158;-65
2021/05/06 14:29:20;;;;;;;4.95;3.90;;;10.40;99.90;;;;;;4957041;29;20058;-74
2021/05/06 14:31:46;;;;;;;5.10;4.05;;;10.10;99.90;;;;;;4939888;29;20036;-66
2021/05/06 14:34:12;;;;;;;9.30;4.22;;;10.00;99.90;;;;;;4940237;29;20102;-66
2021/05/06 14:36:38;;;;;;;6.53;4.68;;;10.10;99.90;;;;;;4957333;29;20027;-67
2021/05/06 14:39:06;;;;;;;4.97;4.30;;;10.10;99.90;;;;;;4941074;29;20063;-66
2021/05/06 14:41:32;;;;;;;6.25;3.80;;;10.10;99.90;;;;;;4940290;29;20035;-65
2021/05/06 14:43:57;;;;;;;4.32;3.75;;;10.20;99.90;;;;;;4957816;29;20023;-66
2021/05/06 14:46:24;;;;;;;9.50;3.90;;;10.20;99.90;;;;;;4956571;29;20146;-68
2021/05/06 14:48:50;;;;;;;4.45;3.35;;;10.20;99.90;;;;;;4957320;29;20480;-67
2021/05/06 14:51:16;;;;;;;5.72;3.42;;;10.00;99.90;;;;;;4938655;29;20039;-69
2021/05/06 14:53:42;;;;;;;5.43;3.85;;;10.00;99.90;;;;;;4936613;29;20524;-67
2021/05/06 14:56:08;;;;;;;5.30;2.92;;;10.10;99.90;;;;;;4938033;29;20031;-68
2021/05/06 14:58:34;;;;;;;6.55;3.17;;;10.20;99.90;;;;;;4937772;29;20513;-66
2021/05/06 15:01:00;;;;;;;4.45;3.20;;;10.00;99.90;;;;;;4939747;29;20031;-66
2021/05/06 15:03:26;;;;;;;5.53;3.75;;;9.80;99.90;;;;;;4955780;29;20103;-68
2021/05/06 15:05:52;;;;;;;4.85;2.97;;;9.80;99.90;;;;;;4939914;29;20033;-68
2021/05/06 15:08:18;;;;;;;8.00;4.82;;;9.80;99.90;;;;;;4956658;29;20024;-68
2021/05/06 15:10:45;;;;;;;6.80;3.28;;;9.60;99.90;;;;;;4954960;29;20043;-67
2021/05/06 15:13:10;;;;;;;4.95;3.00;;;9.50;99.90;;;;;;4939457;29;20040;-67
2021/05/06 15:15:36;;;;;;;5.93;3.45;;;9.30;99.90;;;;;;4944054;28;20022;-66
2021/05/06 15:18:02;;;;;;;8.32;3.58;;;9.20;99.90;;;;;;4977858;28;20027;-69
2021/05/06 15:20:28;;;;;;;7.80;3.33;;;9.20;99.90;;;;;;4979189;28;20026;-67
2021/05/06 15:22:54;;;;;;;5.65;4.00;;;9.20;99.90;;;;;;4960575;28;20026;-70
2021/05/06 15:25:24;;;;;;;8.20;4.15;;;9.20;99.90;;;;;;4970422;28;20027;-65
2021/05/06 15:27:51;;;;;;;5.10;3.30;;;9.20;99.90;;;;;;4949563;28;20031;-63
2021/05/06 15:30:19;;;;;;;8.63;3.85;;;9.60;99.90;;;;;;4964700;28;20405;-63
2021/05/06 15:32:45;;;;;;;3.63;2.97;;;9.70;99.90;;;;;;4934947;28;20038;-64
2021/05/06 15:35:12;;;;;;;7.88;3.17;;;10.30;99.90;;;;;;4973255;28;20145;-63
2021/05/06 15:37:38;;;;;;;7.97;3.50;;;10.30;99.90;;;;;;4988303;28;20022;-64
2021/05/06 15:40:06;;;;;;;4.47;3.42;;;10.30;99.90;;;;;;4969924;28;20035;-62
2021/05/06 15:42:32;;;;;;;7.88;3.92;;;10.50;99.90;;;;;;4964751;28;20086;-63
2021/05/06 15:44:58;;;;;;;7.97;3.55;;;10.40;99.90;;;;;;4978326;28;20391;-64
2021/05/06 15:47:24;;;;;;;6.78;3.65;;;10.20;99.90;;;;;;4967078;28;20048;-64
2021/05/06 15:49:50;;;;;;;5.30;3.22;;;10.30;99.90;;;;;;4968105;28;20073;-64
2021/05/06 15:52:18;;;;;;;8.18;3.60;;;10.60;99.90;;;;;;4963508;28;20067;-64
2021/05/06 15:54:44;;;;;;;7.78;3.85;;;10.70;99.90;;;;;;4964318;28;20034;-64
2021/05/06 15:57:10;;;;;;;5.75;3.63;;;10.90;99.90;;;;;;4973019;28;20024;-63
2021/05/06 15:59:37;;;;;;;6.78;3.95;;;10.80;99.90;;;;;;4968956;28;20053;-65
2021/05/06 16:02:06;;;;;;;4.60;3.45;;;10.70;99.90;;;;;;4968137;28;20405;-64
2021/05/06 16:04:32;;;;;;;5.38;3.97;;;10.50;99.90;;;;;;4974189;28;20026;-64
2021/05/06 16:06:58;;;;;;;4.80;3.00;;;10.60;99.90;;;;;;4991812;28;20027;-62
2021/05/06 16:09:24;;;;;;;4.72;3.20;;;10.50;99.90;;;;;;4991842;28;20069;-62
2021/05/06 16:11:52;;;;;;;4.00;3.28;;;10.60;99.90;;;;;;4991977;28;20042;-64
2021/05/06 16:14:18;;;;;;;6.43;3.60;;;10.50;99.90;;;;;;4991526;28;20026;-64
2021/05/06 16:16:44;;;;;;;6.65;4.05;;;10.60;99.90;;;;;;4981995;28;20394;-64
2021/05/06 16:19:10;;;;;;;6.00;4.63;;;10.80;99.90;;;;;;4981824;28;20113;-69
2021/05/06 16:21:37;;;;;;;8.13;4.93;;;10.60;99.90;;;;;;4959626;28;20035;-69
2021/05/06 16:24:04;;;;;;;6.57;3.58;;;10.10;99.90;;;;;;4953604;28;20030;-67
2021/05/06 16:26:30;;;;;;;8.93;5.72;;;10.40;99.90;;;;;;4953222;28;20031;-70
2021/05/06 16:28:57;;;;;;;9.07;5.88;;;10.50;99.90;;;;;;4954303;28;20066;-68
2021/05/06 16:31:22;;;;;;;10.65;5.78;;;9.80;99.90;;;;;;4953565;28;20113;-71
2021/05/06 16:33:55;;;;;;;12.43;5.97;;;9.50;99.90;;;;;;4950494;28;20117;-72